createdAt,value
2024-01-16T00:00:12.278Z,-0.93
2024-01-16T00:02:39.297Z,-0.93
2024-01-16T00:05:06.216Z,-0.95
2024-01-16T00:07:32.662Z,-0.97
2024-01-16T00:09:59.331Z,-0.97
2024-01-16T00:12:25.739Z,-1.00
2024-01-16T00:14:52.943Z,-1.01
2024-01-16T00:17:19.683Z,-1.04
2024-01-16T00:19:46.457Z,-1.10
2024-01-16T00:22:13.161Z,-1.12
2024-01-16T00:24:39.998Z,-1.16
2024-01-16T00:27:08.880Z,-1.14
2024-01-16T00:29:38.831Z,-1.17
2024-01-16T00:32:05.698Z,-1.17
2024-01-16T00:34:32.238Z,-1.11
2024-01-16T00:36:58.778Z,-1.12
2024-01-16T00:39:25.179Z,-1.12
2024-01-16T00:41:51.916Z,-1.10
2024-01-16T00:44:18.414Z,-1.11
2024-01-16T00:46:44.916Z,-1.09
2024-01-16T00:49:11.680Z,-1.13
2024-01-16T00:51:38.441Z,-1.15
2024-01-16T00:54:05.085Z,-1.01
2024-01-16T00:56:31.772Z,-1.22
2024-01-16T00:58:58.574Z,-1.27
2024-01-16T01:01:25.338Z,-1.35
2024-01-16T01:03:52.891Z,-1.44
2024-01-16T01:06:19.692Z,-1.51
2024-01-16T01:08:46.303Z,-1.54
2024-01-16T01:11:13.580Z,-1.49
2024-01-16T01:13:40.041Z,-1.66
2024-01-16T01:16:06.978Z,-1.69
2024-01-16T01:18:33.751Z,-1.72
2024-01-16T01:21:00.241Z,-1.80
2024-01-16T01:23:26.878Z,-1.77
2024-01-16T01:25:53.583Z,-1.77
2024-01-16T01:28:20.155Z,-1.78
2024-01-16T01:30:46.862Z,-1.82
2024-01-16T01:33:13.970Z,-1.83
2024-01-16T01:35:40.645Z,-1.85
2024-01-16T01:38:07.155Z,-1.85
2024-01-16T01:40:34.005Z,-1.87
2024-01-16T01:43:18.466Z,-1.88
2024-01-16T01:45:45.173Z,-1.87
2024-01-16T01:48:11.780Z,-1.84
2024-01-16T01:50:38.548Z,-1.77
2024-01-16T01:53:05.655Z,-1.79
2024-01-16T01:55:32.423Z,-1.79
2024-01-16T01:57:58.903Z,-1.82
2024-01-16T02:00:25.365Z,-1.80
2024-01-16T02:02:51.759Z,-1.84
2024-01-16T02:05:18.790Z,-1.90
2024-01-16T02:07:45.748Z,-1.95
2024-01-16T02:10:12.805Z,-1.93
2024-01-16T02:12:39.565Z,-1.91
2024-01-16T02:15:06.509Z,-2.03
2024-01-16T02:17:33.242Z,-1.99
2024-01-16T02:20:00.091Z,-1.94
2024-01-16T02:22:30.187Z,-2.01
2024-01-16T02:24:57.753Z,-2.02
2024-01-16T02:27:24.455Z,-2.03
2024-01-16T02:29:51.169Z,-2.09
2024-01-16T02:32:17.910Z,-2.15
2024-01-16T02:34:44.773Z,-2.16
2024-01-16T02:37:11.318Z,-2.07
2024-01-16T02:39:37.732Z,-2.17
2024-01-16T02:42:04.446Z,-2.19
2024-01-16T02:44:30.934Z,-2.17
2024-01-16T02:46:57.652Z,-2.18
2024-01-16T02:49:24.326Z,-2.19
2024-01-16T02:51:50.772Z,-2.19
2024-01-16T02:54:20.896Z,-2.24
2024-01-16T02:56:47.450Z,-2.33
2024-01-16T02:59:14.254Z,-2.39
2024-01-16T03:01:40.759Z,-2.46
2024-01-16T03:04:07.326Z,-2.55
2024-01-16T03:06:34.141Z,-2.62
2024-01-16T03:09:00.704Z,-2.72
2024-01-16T03:11:27.489Z,-2.77
2024-01-16T03:13:54.354Z,-2.75
2024-01-16T03:16:21.130Z,-2.81
2024-01-16T03:18:47.742Z,-2.91
2024-01-16T03:21:14.784Z,-2.96
2024-01-16T03:23:41.380Z,-3.02
2024-01-16T03:26:07.960Z,-3.08
2024-01-16T03:28:34.452Z,-3.11
2024-01-16T03:31:01.386Z,-3.11
2024-01-16T03:33:28.253Z,-3.15
2024-01-16T03:35:54.736Z,-3.13
2024-01-16T03:38:21.156Z,-3.15
2024-01-16T03:40:47.530Z,-3.13
2024-01-16T03:43:14.003Z,-3.06
2024-01-16T03:45:40.607Z,-3.05
2024-01-16T03:48:07.332Z,-3.01
2024-01-16T03:50:34.175Z,-2.96
2024-01-16T03:53:00.897Z,-2.89
2024-01-16T03:55:27.680Z,-2.87
2024-01-16T03:57:54.248Z,-2.85
2024-01-16T04:00:20.806Z,-2.83
2024-01-16T04:02:47.571Z,-2.82
2024-01-16T04:05:14.373Z,-2.81
2024-01-16T04:07:40.895Z,-2.79
2024-01-16T04:10:08.333Z,-2.71
2024-01-16T04:12:35.036Z,-2.76
2024-01-16T04:15:01.468Z,-2.75
2024-01-16T04:17:27.924Z,-2.73
2024-01-16T04:19:54.464Z,-2.69
2024-01-16T04:22:20.915Z,-2.64
2024-01-16T04:24:47.342Z,-2.65
2024-01-16T04:27:13.796Z,-2.65
2024-01-16T04:29:40.553Z,-2.65
2024-01-16T04:32:07.359Z,-2.65
2024-01-16T04:34:33.887Z,-2.65
2024-01-16T04:37:00.617Z,-2.58
2024-01-16T04:39:27.316Z,-2.59
2024-01-16T04:41:54.065Z,-2.58
2024-01-16T04:44:20.761Z,-2.61
2024-01-16T04:46:47.248Z,-2.66
2024-01-16T04:49:13.769Z,-2.65
2024-01-16T04:51:40.268Z,-2.66
2024-01-16T04:54:06.716Z,-2.66
2024-01-16T04:56:33.327Z,-2.67
2024-01-16T04:58:59.852Z,-2.66
2024-01-16T05:01:26.332Z,-2.69
2024-01-16T05:03:52.832Z,-2.72
2024-01-16T05:06:19.455Z,-2.73
2024-01-16T05:08:46.335Z,-2.73
2024-01-16T05:11:12.840Z,-2.73
2024-01-16T05:13:39.446Z,-2.74
2024-01-16T05:16:06.910Z,-2.67
2024-01-16T05:18:33.756Z,-2.73
2024-01-16T05:21:00.972Z,-2.76
2024-01-16T05:23:27.787Z,-2.78
2024-01-16T05:25:54.573Z,-2.71
2024-01-16T05:28:21.018Z,-2.79
2024-01-16T05:30:47.573Z,-2.78
2024-01-16T05:33:14.420Z,-2.74
2024-01-16T05:35:41.045Z,-2.72
2024-01-16T05:38:07.548Z,-2.74
2024-01-16T05:40:34.044Z,-2.62
2024-01-16T05:43:00.728Z,-2.60
2024-01-16T05:45:27.159Z,-2.64
2024-01-16T05:47:53.905Z,-2.68
2024-01-16T05:50:20.471Z,-2.68
2024-01-16T05:52:47.529Z,-2.68
2024-01-16T05:55:14.105Z,-2.70
2024-01-16T05:57:40.566Z,-2.61
2024-01-16T06:00:07.923Z,-2.60
2024-01-16T06:02:34.468Z,-2.61
2024-01-16T06:05:00.992Z,-2.68
2024-01-16T06:07:27.736Z,-2.64
2024-01-16T06:09:54.424Z,-2.67
2024-01-16T06:12:20.857Z,-2.73
2024-01-16T06:14:47.652Z,-2.70
2024-01-16T06:17:14.242Z,-2.66
2024-01-16T06:19:40.696Z,-2.56
2024-01-16T06:22:07.508Z,-2.61
2024-01-16T06:24:34.031Z,-2.58
2024-01-16T06:27:00.912Z,-2.52
2024-01-16T06:29:34.549Z,-2.60
2024-01-16T06:32:03.274Z,-2.55
2024-01-16T06:34:30.045Z,-2.60
2024-01-16T06:36:57.026Z,-2.59
2024-01-16T06:39:23.786Z,-2.54
2024-01-16T06:41:50.458Z,-2.53
2024-01-16T06:44:17.282Z,-2.53
2024-01-16T06:46:43.738Z,-2.50
2024-01-16T06:49:10.286Z,-2.44
2024-01-16T06:51:37.098Z,-2.46
2024-01-16T06:54:03.895Z,-2.45
2024-01-16T06:56:30.840Z,-2.41
2024-01-16T06:58:57.528Z,-2.33
2024-01-16T07:01:24.204Z,-2.38
2024-01-16T07:03:50.681Z,-2.37
2024-01-16T07:06:17.210Z,-2.39
2024-01-16T07:08:44.022Z,-2.40
2024-01-16T07:11:10.549Z,-2.29
2024-01-16T07:13:37.073Z,-2.37
2024-01-16T07:16:03.892Z,-2.39
2024-01-16T07:18:30.765Z,-2.41
2024-01-16T07:20:57.826Z,-2.38
2024-01-16T07:23:24.623Z,-2.35
2024-01-16T07:25:51.150Z,-2.28
2024-01-16T07:28:17.615Z,-2.36
2024-01-16T07:30:44.105Z,-2.27
2024-01-16T07:33:10.620Z,-2.32
2024-01-16T07:35:37.423Z,-2.34
2024-01-16T07:38:05.647Z,-2.37
2024-01-16T07:40:32.597Z,-2.44
2024-01-16T07:42:59.194Z,-2.48
2024-01-16T07:45:25.639Z,-2.47
2024-01-16T07:47:52.257Z,-2.41
2024-01-16T07:50:18.792Z,-2.33
2024-01-16T07:52:45.232Z,-2.27
2024-01-16T07:55:11.943Z,-2.24
2024-01-16T07:57:38.487Z,-2.16
2024-01-16T08:00:05.488Z,-2.13
2024-01-16T08:02:35.874Z,-2.10
2024-01-16T08:05:02.446Z,-2.05
2024-01-16T08:07:29.161Z,-1.99
2024-01-16T08:09:55.624Z,-1.99
2024-01-16T08:12:22.329Z,-1.93
2024-01-16T08:14:48.831Z,-1.91
2024-01-16T08:17:15.477Z,-1.92
2024-01-16T08:19:42.649Z,-1.88
2024-01-16T08:22:10.490Z,-1.88
2024-01-16T08:24:37.256Z,-1.87
2024-01-16T08:27:03.793Z,-1.83
2024-01-16T08:29:30.607Z,-1.81
2024-01-16T08:31:57.060Z,-1.77
2024-01-16T08:34:23.601Z,-1.73
2024-01-16T08:36:50.381Z,-1.67
2024-01-16T08:39:16.872Z,-1.61
2024-01-16T08:41:43.564Z,-1.58
2024-01-16T08:44:10.283Z,-1.60
2024-01-16T08:46:36.964Z,-1.63
2024-01-16T08:49:03.527Z,-1.65
2024-01-16T08:51:29.958Z,-1.60
2024-01-16T08:53:56.751Z,-1.56
2024-01-16T08:56:23.245Z,-1.56
2024-01-16T08:58:49.722Z,-1.49
2024-01-16T09:01:16.834Z,-1.44
2024-01-16T09:03:43.314Z,-1.41
2024-01-16T09:06:10.299Z,-1.31
2024-01-16T09:08:36.961Z,-1.29
2024-01-16T09:11:03.784Z,-1.26
2024-01-16T09:13:30.278Z,-1.26
2024-01-16T09:15:56.982Z,-1.33
2024-01-16T09:18:23.685Z,-1.28
2024-01-16T09:20:50.196Z,-1.24
2024-01-16T09:23:16.708Z,-1.23
2024-01-16T09:25:45.426Z,-1.22
2024-01-16T09:28:13.316Z,-1.22
2024-01-16T09:30:40.126Z,-1.24
2024-01-16T09:33:06.659Z,-1.18
2024-01-16T09:35:34.088Z,-1.15
2024-01-16T09:38:00.626Z,-1.17
2024-01-16T09:40:27.873Z,-1.12
2024-01-16T09:42:54.576Z,-1.03
2024-01-16T09:45:21.744Z,-1.00
2024-01-16T09:47:51.855Z,-1.02
2024-01-16T09:50:20.331Z,-1.04
2024-01-16T09:52:47.750Z,-1.15
2024-01-16T09:55:15.525Z,-1.19
2024-01-16T09:57:42.526Z,-1.21
2024-01-16T10:00:11.822Z,-1.17
2024-01-16T10:02:40.177Z,-1.12
2024-01-16T10:05:11.236Z,-1.15
2024-01-16T10:07:42.550Z,-1.15
2024-01-16T10:10:10.514Z,-1.17
2024-01-16T10:12:37.022Z,-1.17
2024-01-16T10:15:06.886Z,-1.21
2024-01-16T10:17:40.334Z,-1.17
2024-01-16T10:20:08.762Z,-1.17
2024-01-16T10:22:35.227Z,-1.03
2024-01-16T10:25:12.079Z,-1.02
2024-01-16T10:27:41.042Z,-0.93
2024-01-16T10:30:08.235Z,-0.80
2024-01-16T10:32:40.473Z,-0.69
2024-01-16T10:35:15.314Z,-0.66
2024-01-16T10:37:41.963Z,-0.56
2024-01-16T10:40:09.108Z,-0.51
2024-01-16T10:42:35.810Z,-0.45
2024-01-16T10:45:02.220Z,-0.32
2024-01-16T10:47:29.008Z,-0.25
2024-01-16T10:49:55.572Z,-0.15
2024-01-16T10:52:28.632Z,-0.15
2024-01-16T10:55:00.841Z,-0.10
2024-01-16T10:57:29.143Z,-0.04
2024-01-16T11:00:05.341Z,0.05
2024-01-16T11:02:39.382Z,0.18
2024-01-16T11:05:06.233Z,0.20
2024-01-16T11:07:35.400Z,0.33
2024-01-16T11:10:02.917Z,0.49
2024-01-16T11:12:31.892Z,0.33
2024-01-16T11:15:01.410Z,0.26
2024-01-16T11:17:32.443Z,0.07
2024-01-16T11:20:13.502Z,0.09
2024-01-16T11:22:47.342Z,0.19
2024-01-16T11:25:15.388Z,0.27
2024-01-16T11:27:43.942Z,0.25
2024-01-16T11:30:12.597Z,0.19
2024-01-16T11:32:40.392Z,0.18
2024-01-16T11:35:13.264Z,0.16
2024-01-16T11:37:42.603Z,0.13
2024-01-16T11:40:18.520Z,0.09
2024-01-16T11:42:45.343Z,0.11
2024-01-16T11:45:30.208Z,0.11
2024-01-16T11:48:28.719Z,0.12
2024-01-16T11:50:56.035Z,0.15
2024-01-16T11:53:31.644Z,0.16
2024-01-16T11:56:24.860Z,0.19
2024-01-16T11:59:16.270Z,0.24
2024-01-16T12:01:46.694Z,0.26
2024-01-16T12:04:15.282Z,0.08
2024-01-16T12:06:41.872Z,0.03
2024-01-16T12:09:13.437Z,0.03
2024-01-16T12:11:43.809Z,0.03
2024-01-16T12:14:10.610Z,0.08
2024-01-16T12:16:37.413Z,0.07
2024-01-16T12:19:11.332Z,0.08
2024-01-16T12:21:45.212Z,0.07
2024-01-16T12:24:15.827Z,0.05
2024-01-16T12:26:45.027Z,0.04
2024-01-16T12:29:11.697Z,0.00
2024-01-16T12:31:38.511Z,0.02
2024-01-16T12:34:11.689Z,-0.03
2024-01-16T12:36:39.105Z,-0.02
2024-01-16T12:39:05.802Z,0.02
2024-01-16T12:41:44.740Z,0.02
2024-01-16T12:44:16.405Z,0.08
2024-01-16T12:47:05.552Z,0.12
2024-01-16T12:49:32.217Z,0.15
2024-01-16T12:52:18.440Z,0.12
2024-01-16T12:54:45.301Z,0.11
2024-01-16T12:57:18.374Z,0.07
2024-01-16T12:59:45.000Z,0.10
2024-01-16T13:02:20.107Z,0.08
2024-01-16T13:04:47.551Z,0.08
2024-01-16T13:07:17.443Z,0.17
2024-01-16T13:09:43.976Z,0.19
2024-01-16T13:12:20.621Z,0.11
2024-01-16T13:14:47.410Z,0.04
2024-01-16T13:17:14.209Z,0.07
2024-01-16T13:19:42.130Z,0.13
2024-01-16T13:22:08.570Z,0.15
2024-01-16T13:24:35.162Z,0.07
2024-01-16T13:27:01.928Z,0.08
2024-01-16T13:29:28.532Z,0.04
2024-01-16T13:31:55.273Z,0.12
2024-01-16T13:34:23.542Z,0.13
2024-01-16T13:37:08.415Z,0.22
2024-01-16T13:39:40.159Z,0.22
2024-01-16T13:42:07.101Z,0.16
2024-01-16T13:44:33.810Z,0.17
2024-01-16T13:47:07.073Z,0.16
2024-01-16T13:49:38.053Z,0.12
2024-01-16T13:52:04.852Z,0.15
2024-01-16T13:54:32.876Z,0.15
2024-01-16T13:57:06.262Z,0.14
2024-01-16T13:59:35.800Z,0.18
2024-01-16T14:02:06.037Z,0.25
2024-01-16T14:04:33.462Z,0.27
2024-01-16T14:07:11.857Z,0.21
2024-01-16T14:09:45.022Z,0.22
2024-01-16T14:12:12.697Z,0.26
2024-01-16T14:14:42.023Z,0.29
2024-01-16T14:17:08.608Z,0.25
2024-01-16T14:19:38.447Z,0.25
2024-01-16T14:22:07.238Z,0.21
2024-01-16T14:24:33.726Z,0.19
2024-01-16T14:27:00.539Z,0.14
2024-01-16T14:29:27.312Z,0.14
2024-01-16T14:31:54.172Z,0.15
2024-01-16T14:34:20.962Z,0.15
2024-01-16T14:36:48.099Z,0.15
2024-01-16T14:39:14.882Z,0.15
2024-01-16T14:41:41.406Z,0.17
2024-01-16T14:44:10.359Z,0.14
2024-01-16T14:46:37.285Z,0.15
2024-01-16T14:49:04.070Z,0.16
2024-01-16T14:51:30.676Z,0.13
2024-01-16T14:53:57.533Z,0.12
2024-01-16T14:56:26.604Z,0.13
2024-01-16T14:58:53.272Z,0.13
2024-01-16T15:01:19.866Z,0.13
2024-01-16T15:03:46.596Z,0.09
2024-01-16T15:06:13.173Z,0.06
2024-01-16T15:08:40.238Z,0.05
2024-01-16T15:11:07.036Z,0.06
2024-01-16T15:13:33.729Z,0.06
2024-01-16T15:16:00.348Z,0.03
2024-01-16T15:18:27.202Z,0.06
2024-01-16T15:20:55.063Z,0.04
2024-01-16T15:23:21.625Z,0.04
2024-01-16T15:25:48.120Z,0.14
2024-01-16T15:28:14.550Z,0.08
2024-01-16T15:30:41.037Z,0.07
2024-01-16T15:33:07.843Z,0.09
2024-01-16T15:35:34.616Z,0.07
2024-01-16T15:38:01.299Z,0.03
2024-01-16T15:40:28.070Z,0.08
2024-01-16T15:42:54.556Z,0.06
2024-01-16T15:45:22.621Z,0.04
2024-01-16T15:47:51.332Z,0.04
2024-01-16T15:50:17.802Z,0.02
2024-01-16T15:52:44.507Z,0.03
2024-01-16T15:55:10.963Z,-0.02
2024-01-16T15:57:38.030Z,0.04
2024-01-16T16:00:06.341Z,-0.01
2024-01-16T16:02:33.067Z,-0.08
2024-01-16T16:04:59.504Z,-0.11
2024-01-16T16:07:27.150Z,-0.16
2024-01-16T16:09:53.679Z,-0.15
2024-01-16T16:12:20.372Z,-0.12
2024-01-16T16:14:47.423Z,-0.16
2024-01-16T16:17:14.242Z,-0.18
2024-01-16T16:19:41.643Z,-0.20
2024-01-16T16:22:08.446Z,-0.22
2024-01-16T16:24:36.145Z,-0.19
2024-01-16T16:27:02.664Z,-0.19
2024-01-16T16:29:29.421Z,-0.22
2024-01-16T16:31:56.218Z,-0.19
2024-01-16T16:34:23.023Z,-0.22
2024-01-16T16:36:49.539Z,-0.24
2024-01-16T16:39:16.041Z,-0.14
2024-01-16T16:41:43.534Z,-0.22
2024-01-16T16:44:10.045Z,-0.20
2024-01-16T16:46:36.556Z,-0.18
2024-01-16T16:49:03.348Z,-0.19
2024-01-16T16:51:30.096Z,-0.20
2024-01-16T16:53:56.651Z,-0.20
2024-01-16T16:56:24.207Z,-0.20
2024-01-16T16:58:51.966Z,-0.18
2024-01-16T17:01:20.481Z,-0.18
2024-01-16T17:03:48.838Z,-0.15
2024-01-16T17:06:15.611Z,-0.17
2024-01-16T17:08:42.195Z,-0.18
2024-01-16T17:11:08.774Z,-0.17
2024-01-16T17:13:37.101Z,-0.18
2024-01-16T17:16:03.949Z,-0.13
2024-01-16T17:18:32.256Z,-0.20
2024-01-16T17:20:59.185Z,-0.19
2024-01-16T17:23:25.741Z,-0.21
2024-01-16T17:25:52.820Z,-0.20
2024-01-16T17:28:19.266Z,-0.23
2024-01-16T17:30:45.934Z,-0.20
2024-01-16T17:33:12.732Z,-0.21
2024-01-16T17:35:39.605Z,-0.22
2024-01-16T17:38:07.790Z,-0.23
2024-01-16T17:40:34.477Z,-0.23
2024-01-16T17:43:01.173Z,-0.27
2024-01-16T17:45:28.312Z,-0.25
2024-01-16T17:47:54.774Z,-0.29
2024-01-16T17:50:21.827Z,-0.29
2024-01-16T17:52:48.420Z,-0.29
2024-01-16T17:55:15.176Z,-0.29
2024-01-16T17:57:41.623Z,-0.31
2024-01-16T18:00:09.279Z,-0.33
2024-01-16T18:02:36.818Z,-0.35
2024-01-16T18:05:03.177Z,-0.36
2024-01-16T18:07:29.892Z,-0.34
2024-01-16T18:09:56.324Z,-0.34
2024-01-16T18:12:22.739Z,-0.35
2024-01-16T18:14:49.144Z,-0.35
2024-01-16T18:17:15.579Z,-0.33
2024-01-16T18:19:42.465Z,-0.32
2024-01-16T18:22:11.297Z,-0.32
2024-01-16T18:24:37.731Z,-0.31
2024-01-16T18:27:04.773Z,-0.33
2024-01-16T18:29:31.543Z,-0.32
2024-01-16T18:31:58.238Z,-0.32
2024-01-16T18:34:24.996Z,-0.35
2024-01-16T18:36:53.622Z,-0.35
2024-01-16T18:39:20.203Z,-0.34
2024-01-16T18:41:47.966Z,-0.33
2024-01-16T18:44:18.314Z,-0.37
2024-01-16T18:46:44.769Z,-0.32
2024-01-16T18:49:11.923Z,-0.29
2024-01-16T18:51:38.385Z,-0.38
2024-01-16T18:54:04.882Z,-0.40
2024-01-16T18:56:31.345Z,-0.46
2024-01-16T18:58:58.086Z,-0.50
2024-01-16T19:01:24.693Z,-0.53
2024-01-16T19:03:52.586Z,-0.57
2024-01-16T19:06:19.265Z,-0.62
2024-01-16T19:08:45.701Z,-0.62
2024-01-16T19:11:12.721Z,-0.66
2024-01-16T19:13:39.350Z,-0.69
2024-01-16T19:16:06.187Z,-0.63
2024-01-16T19:18:33.048Z,-0.66
2024-01-16T19:20:59.746Z,-0.70
2024-01-16T19:23:26.274Z,-0.69
2024-01-16T19:25:52.715Z,-0.67
2024-01-16T19:28:19.177Z,-0.69
2024-01-16T19:30:46.014Z,-0.71
2024-01-16T19:33:12.678Z,-0.67
2024-01-16T19:35:39.488Z,-0.68
2024-01-16T19:38:05.942Z,-0.72
2024-01-16T19:40:32.602Z,-0.72
2024-01-16T19:42:59.052Z,-0.71
2024-01-16T19:45:25.478Z,-0.66
2024-01-16T19:47:52.195Z,-0.64
2024-01-16T19:50:19.027Z,-0.68
2024-01-16T19:52:49.199Z,-0.67
2024-01-16T19:55:15.865Z,-0.66
2024-01-16T19:57:42.549Z,-0.65
2024-01-16T20:00:09.731Z,-0.62
2024-01-16T20:02:36.283Z,-0.58
2024-01-16T20:05:02.874Z,-0.56
2024-01-16T20:07:29.648Z,-0.57
2024-01-16T20:09:56.083Z,-0.56
2024-01-16T20:12:32.521Z,-0.57
2024-01-16T20:15:06.842Z,-0.57
2024-01-16T20:17:33.614Z,-0.57
2024-01-16T20:20:00.245Z,-0.56
2024-01-16T20:22:26.958Z,-0.59
2024-01-16T20:24:53.479Z,-0.54
2024-01-16T20:27:19.917Z,-0.56
2024-01-16T20:29:46.621Z,-0.56
2024-01-16T20:32:13.223Z,-0.57
2024-01-16T20:34:39.765Z,-0.56
2024-01-16T20:37:06.525Z,-0.59
2024-01-16T20:39:32.955Z,-0.57
2024-01-16T20:41:59.635Z,-0.58
2024-01-16T20:44:26.142Z,-0.58
2024-01-16T20:46:52.520Z,-0.57
2024-01-16T20:49:19.140Z,-0.61
2024-01-16T20:51:46.232Z,-0.64
2024-01-16T20:54:12.951Z,-0.63
2024-01-16T20:56:42.899Z,-0.63
2024-01-16T20:59:09.541Z,-0.63
2024-01-16T21:01:38.307Z,-0.67
2024-01-16T21:04:04.749Z,-0.69
2024-01-16T21:06:31.490Z,-0.66
2024-01-16T21:08:58.274Z,-0.66
2024-01-16T21:11:25.297Z,-0.70
2024-01-16T21:13:51.771Z,-0.68
2024-01-16T21:16:19.182Z,-0.71
2024-01-16T21:18:46.042Z,-0.74
2024-01-16T21:21:12.869Z,-0.73
2024-01-16T21:23:42.460Z,-0.72
2024-01-16T21:26:09.822Z,-0.72
2024-01-16T21:28:36.731Z,-0.73
2024-01-16T21:31:03.690Z,-0.74
2024-01-16T21:33:33.989Z,-0.76
2024-01-16T21:36:00.997Z,-0.76
2024-01-16T21:38:27.893Z,-0.79
2024-01-16T21:40:54.713Z,-0.80
2024-01-16T21:43:21.403Z,-0.84
2024-01-16T21:45:47.838Z,-0.87
2024-01-16T21:48:14.405Z,-0.88
2024-01-16T21:50:41.236Z,-0.92
2024-01-16T21:53:08.006Z,-0.93
2024-01-16T21:55:34.496Z,-0.91
2024-01-16T21:58:01.039Z,-0.95
2024-01-16T22:00:27.580Z,-0.97
2024-01-16T22:02:54.284Z,-0.97
2024-01-16T22:05:21.068Z,-0.98
2024-01-16T22:07:47.716Z,-0.99
2024-01-16T22:10:14.446Z,-1.00
2024-01-16T22:12:41.119Z,-0.98
2024-01-16T22:15:08.244Z,-1.03
2024-01-16T22:17:35.379Z,-1.03
2024-01-16T22:20:01.880Z,-1.02
2024-01-16T22:22:28.415Z,-1.03
2024-01-16T22:24:55.146Z,-1.02
2024-01-16T22:27:21.602Z,-1.02
2024-01-16T22:29:48.268Z,-1.01
2024-01-16T22:32:14.800Z,-1.03
2024-01-16T22:34:41.596Z,-0.99
2024-01-16T22:37:08.305Z,-1.01
2024-01-16T22:39:35.063Z,-1.05
2024-01-16T22:42:01.811Z,-1.09
2024-01-16T22:44:28.416Z,-1.15
2024-01-16T22:46:55.093Z,-1.19
2024-01-16T22:49:21.662Z,-1.26
2024-01-16T22:51:48.124Z,-1.33
2024-01-16T22:54:14.691Z,-1.38
2024-01-16T22:56:41.438Z,-1.42
2024-01-16T22:59:08.345Z,-1.47
2024-01-16T23:01:34.760Z,-1.47
2024-01-16T23:04:01.215Z,-1.52
2024-01-16T23:06:28.024Z,-1.53
2024-01-16T23:08:58.534Z,-1.58
2024-01-16T23:11:25.179Z,-1.62
2024-01-16T23:13:52.988Z,-1.64
2024-01-16T23:16:19.556Z,-1.67
2024-01-16T23:18:47.304Z,-1.74
2024-01-16T23:21:17.512Z,-1.73
2024-01-16T23:23:45.247Z,-1.76
2024-01-16T23:26:12.378Z,-1.78
2024-01-16T23:28:39.603Z,-1.81
2024-01-16T23:31:06.948Z,-1.82
2024-01-16T23:33:34.983Z,-1.86
2024-01-16T23:36:02.307Z,-1.89
2024-01-16T23:38:28.858Z,-1.95
2024-01-16T23:40:56.429Z,-1.96
2024-01-16T23:43:23.552Z,-1.96
2024-01-16T23:45:50.234Z,-2.02
2024-01-16T23:48:17.506Z,-2.03
2024-01-16T23:50:44.285Z,-2.05
2024-01-16T23:53:10.748Z,-2.05
2024-01-16T23:55:37.480Z,-2.09
2024-01-16T23:58:04.309Z,-2.13
